createdAt,value
2018-12-08T00:01:02.950Z,100214.58
2018-12-08T00:03:31.116Z,100215.53
2018-12-08T00:05:59.409Z,100208.24
2018-12-08T00:08:27.676Z,100206.34
2018-12-08T00:10:55.958Z,100202.99
2018-12-08T00:13:24.148Z,100206.34
2018-12-08T00:15:52.396Z,100204.58
2018-12-08T00:18:20.665Z,100195.48
2018-12-08T00:20:49.801Z,100218.19
2018-12-08T00:23:18.036Z,100207.81
2018-12-08T00:25:46.313Z,100213.77
2018-12-08T00:28:14.497Z,100202.19
2018-12-08T00:30:53.985Z,100213.19
2018-12-08T00:33:22.197Z,100220.36
2018-12-08T00:35:50.353Z,100219.98
2018-12-08T00:38:18.587Z,100233.47
2018-12-08T00:40:46.884Z,100233.73
2018-12-08T00:43:15.097Z,100237.91
2018-12-08T00:45:43.276Z,100228.13
2018-12-08T00:48:11.550Z,100238.84
2018-12-08T00:50:39.743Z,100228.13
2018-12-08T00:56:01.565Z,100246.73
2018-12-08T00:58:29.740Z,100254.38
2018-12-08T01:00:57.916Z,100240.89
2018-12-08T01:03:26.213Z,100244.95
2018-12-08T01:05:54.486Z,100261.99
2018-12-08T01:08:22.640Z,100245.16
2018-12-08T01:10:50.816Z,100269.83
2018-12-08T01:13:19.001Z,100264.33
2018-12-08T01:15:47.186Z,100267.32
2018-12-08T01:18:15.341Z,100261.34
2018-12-08T01:20:43.512Z,100268.02
2018-12-08T01:23:11.689Z,100264.33
2018-12-08T01:25:39.856Z,100270.41
2018-12-08T01:28:08.012Z,100264.80
2018-12-08T01:30:37.164Z,100263.97
2018-12-08T01:33:05.396Z,100277.20
2018-12-08T01:35:33.681Z,100268.38
2018-12-08T01:38:01.965Z,100264.44
2018-12-08T01:40:30.121Z,100262.77
2018-12-08T01:42:58.539Z,100287.70
2018-12-08T01:45:26.881Z,100258.47
2018-12-08T01:47:55.057Z,100263.49
2018-12-08T01:50:23.336Z,100266.48
2018-12-08T01:52:51.672Z,100266.12
2018-12-08T01:55:19.900Z,100251.31
2018-12-08T01:57:48.068Z,100253.36
2018-12-08T02:00:16.461Z,100250.37
2018-12-08T02:02:44.937Z,100260.50
2018-12-08T02:05:13.407Z,100256.34
2018-12-08T02:07:41.577Z,100258.71
2018-12-08T02:10:09.889Z,100261.34
2018-12-08T02:12:38.132Z,100246.90
2018-12-08T02:15:06.547Z,100257.17
2018-12-08T02:17:35.380Z,100259.80
2018-12-08T02:20:04.384Z,100256.34
2018-12-08T02:22:32.612Z,100249.30
2018-12-08T02:25:00.845Z,100253.83
2018-12-08T02:27:29.078Z,100252.88
2018-12-08T02:29:57.283Z,100247.63
2018-12-08T02:32:25.577Z,100249.89
2018-12-08T02:34:53.864Z,100233.66
2018-12-08T02:37:22.222Z,100245.00
2018-12-08T02:39:50.494Z,100228.89
2018-12-08T02:42:18.677Z,100227.22
2018-12-08T02:44:46.901Z,100231.77
2018-12-08T02:47:15.950Z,100249.78
2018-12-08T02:49:44.149Z,100222.58
2018-12-08T02:52:12.506Z,100223.19
2018-12-08T02:54:40.768Z,100225.59
2018-12-08T02:57:09.053Z,100233.59
2018-12-08T02:59:37.309Z,100238.48
2018-12-08T03:02:06.113Z,100229.66
2018-12-08T03:04:34.401Z,100232.02
2018-12-08T03:07:02.641Z,100223.55
2018-12-08T03:09:31.028Z,100216.05
2018-12-08T03:11:59.258Z,100216.89
2018-12-08T03:14:27.823Z,100216.30
2018-12-08T03:16:56.773Z,100213.56
2018-12-08T03:19:25.060Z,100211.88
2018-12-08T03:21:53.276Z,100206.39
2018-12-08T03:24:21.652Z,100207.95
2018-12-08T03:26:49.811Z,100208.67
2018-12-08T03:29:18.076Z,100196.61
2018-12-08T03:31:46.347Z,100189.80
2018-12-08T03:34:14.668Z,100183.95
2018-12-08T03:36:42.992Z,100189.91
2018-12-08T03:39:11.261Z,100191.94
2018-12-08T03:41:39.611Z,100193.97
2018-12-08T03:44:08.132Z,100185.13
2018-12-08T03:46:36.309Z,100190.03
2018-12-08T03:49:04.586Z,100179.87
2018-12-08T03:51:32.728Z,100175.94
2018-12-08T03:54:00.893Z,100182.87
2018-12-08T03:56:29.370Z,100188.95
2018-12-08T03:58:58.368Z,100178.69
2018-12-08T04:01:26.565Z,100194.91
2018-12-08T04:03:54.739Z,100193.59
2018-12-08T04:06:23.032Z,100183.80
2018-12-08T04:08:51.258Z,100178.91
2018-12-08T04:11:19.485Z,100180.58
2018-12-08T04:13:47.646Z,100169.11
2018-12-08T04:16:15.929Z,100172.70
2018-12-08T04:18:44.201Z,100168.55
2018-12-08T04:21:12.499Z,100171.06
2018-12-08T04:23:41.587Z,100166.64
2018-12-08T04:26:09.739Z,100172.61
2018-12-08T04:28:37.903Z,100169.12
2018-12-08T04:31:06.053Z,100160.88
2018-12-08T04:33:34.247Z,100151.80
2018-12-08T04:36:02.441Z,100185.61
2018-12-08T04:38:30.652Z,100157.29
2018-12-08T04:40:58.867Z,100160.28
2018-12-08T04:43:27.033Z,100158.97
2018-12-08T04:45:55.953Z,100149.17
2018-12-08T04:48:24.152Z,100147.50
2018-12-08T04:50:52.376Z,100169.23
2018-12-08T04:53:20.558Z,100155.02
2018-12-08T04:55:48.729Z,100158.61
2018-12-08T04:58:17.553Z,100169.95
2018-12-08T05:00:45.896Z,100158.61
2018-12-08T05:03:14.049Z,100162.55
2018-12-08T05:05:42.270Z,100164.02
2018-12-08T05:08:12.092Z,100165.33
2018-12-08T05:10:40.377Z,100161.23
2018-12-08T05:13:08.696Z,100160.88
2018-12-08T05:15:36.989Z,100160.64
2018-12-08T05:18:05.157Z,100155.02
2018-12-08T05:20:33.469Z,100151.32
2018-12-08T05:23:01.615Z,100168.88
2018-12-08T05:25:29.892Z,100161.95
2018-12-08T05:27:58.064Z,100162.67
2018-12-08T05:30:26.267Z,100150.84
2018-12-08T05:32:54.428Z,100133.76
2018-12-08T05:35:22.582Z,100136.86
2018-12-08T05:37:50.869Z,100126.83
2018-12-08T05:40:19.173Z,100135.66
2018-12-08T05:42:47.348Z,100125.98
2018-12-08T05:45:15.590Z,100134.59
2018-12-08T05:47:43.757Z,100129.45
2018-12-08T05:50:11.940Z,100121.80
2018-12-08T05:52:40.097Z,100133.27
2018-12-08T05:55:08.389Z,100139.02
2018-12-08T05:57:36.597Z,100135.66
2018-12-08T06:00:05.942Z,100143.27
2018-12-08T06:02:34.129Z,100133.12
2018-12-08T06:05:02.274Z,100138.98
2018-12-08T06:07:30.517Z,100126.19
2018-12-08T06:09:58.713Z,100125.95
2018-12-08T06:12:26.857Z,100137.42
2018-12-08T06:14:54.980Z,100134.91
2018-12-08T06:17:23.215Z,100136.58
2018-12-08T06:19:51.417Z,100131.69
2018-12-08T06:22:19.667Z,100143.39
2018-12-08T06:24:47.883Z,100145.30
2018-12-08T06:27:26.317Z,100144.59
2018-12-08T06:29:54.480Z,100131.80
2018-12-08T06:32:22.622Z,100133.12
2018-12-08T06:34:50.940Z,100137.42
2018-12-08T06:37:19.080Z,100141.36
2018-12-08T06:39:47.334Z,100151.28
2018-12-08T06:42:15.488Z,100163.27
2018-12-08T06:44:43.748Z,100126.31
2018-12-08T06:47:11.934Z,100134.34
2018-12-08T06:49:40.104Z,100121.20
2018-12-08T06:52:08.298Z,100108.39
2018-12-08T06:54:36.428Z,100119.14
2018-12-08T06:57:04.593Z,100130.41
2018-12-08T06:59:32.870Z,100099.46
2018-12-08T07:02:01.168Z,100116.42
2018-12-08T07:04:29.472Z,100113.64
2018-12-08T07:06:57.799Z,100101.70
2018-12-08T07:09:26.078Z,100122.24
2018-12-08T07:11:54.364Z,100094.92
2018-12-08T07:14:22.518Z,100104.20
2018-12-08T07:16:50.811Z,100105.16
2018-12-08T07:19:18.982Z,100099.55
2018-12-08T07:21:47.157Z,100106.83
2018-12-08T07:24:15.525Z,100094.64
2018-12-08T07:26:43.837Z,100082.10
2018-12-08T07:29:12.105Z,100101.13
2018-12-08T07:31:40.365Z,100086.20
2018-12-08T07:34:08.528Z,100074.52
2018-12-08T07:36:36.949Z,100084.34
2018-12-08T07:39:06.530Z,100085.38
2018-12-08T07:41:34.801Z,100075.39
2018-12-08T07:44:02.973Z,100086.14
2018-12-08T07:46:31.151Z,100083.51
2018-12-08T07:48:59.426Z,100087.55
2018-12-08T07:51:27.938Z,100082.20
2018-12-08T07:53:56.305Z,100082.44
2018-12-08T07:56:24.569Z,100086.14
2018-12-08T07:58:52.807Z,100072.66
2018-12-08T08:01:21.334Z,100082.80
2018-12-08T08:03:49.478Z,100075.52
2018-12-08T08:06:18.481Z,100073.48
2018-12-08T08:08:46.842Z,100070.74
2018-12-08T08:11:15.016Z,100064.17
2018-12-08T08:13:43.214Z,100058.80
2018-12-08T08:16:11.381Z,100063.93
2018-12-08T08:18:39.525Z,100064.77
2018-12-08T08:21:07.729Z,100074.32
2018-12-08T08:23:35.906Z,100056.05
2018-12-08T08:26:04.176Z,100064.41
2018-12-08T08:28:32.345Z,100058.92
2018-12-08T08:31:00.508Z,100085.55
2018-12-08T08:33:28.737Z,100049.45
2018-12-08T08:35:56.965Z,100058.75
2018-12-08T08:38:25.140Z,100061.17
2018-12-08T08:40:53.268Z,100091.87
2018-12-08T08:43:21.492Z,100059.02
2018-12-08T08:45:49.722Z,100052.69
2018-12-08T08:48:17.876Z,100050.17
2018-12-08T08:50:46.141Z,100049.55
2018-12-08T08:53:14.382Z,100051.22
2018-12-08T08:55:42.666Z,100045.72
2018-12-08T08:58:11.415Z,100048.70
2018-12-08T09:00:39.860Z,100048.09
2018-12-08T09:03:08.010Z,100030.41
2018-12-08T09:05:36.219Z,100059.68
2018-12-08T09:08:04.464Z,100037.09
2018-12-08T09:10:32.622Z,100038.13
2018-12-08T09:13:00.808Z,100052.11
2018-12-08T09:15:28.981Z,100065.13
2018-12-08T09:17:57.152Z,100050.19
2018-12-08T09:20:25.975Z,100037.27
2018-12-08T09:22:54.212Z,100027.58
2018-12-08T09:25:22.410Z,100033.87
2018-12-08T09:27:50.562Z,100040.91
2018-12-08T09:30:18.730Z,100030.62
2018-12-08T09:32:46.914Z,100027.38
2018-12-08T09:35:15.204Z,100026.91
2018-12-08T09:37:43.348Z,100044.48
2018-12-08T09:40:11.533Z,100035.27
2018-12-08T09:42:39.820Z,100074.97
2018-12-08T09:45:08.461Z,100044.85
2018-12-08T09:47:36.673Z,100045.09
2018-12-08T09:50:06.311Z,100035.55
2018-12-08T09:52:34.545Z,100040.92
2018-12-08T09:55:02.844Z,100045.70
2018-12-08T09:57:31.126Z,100066.84
2018-12-08T09:59:59.291Z,100045.81
2018-12-08T10:02:27.428Z,100044.14
2018-12-08T10:04:55.568Z,100043.78
2018-12-08T10:07:23.796Z,100025.50
2018-12-08T10:09:52.209Z,100050.00
2018-12-08T10:12:20.358Z,100029.67
2018-12-08T10:14:48.544Z,100023.69
2018-12-08T10:17:16.820Z,100027.16
2018-12-08T10:19:44.987Z,100014.11
2018-12-08T10:22:13.278Z,100026.50
2018-12-08T10:24:41.425Z,100028.75
2018-12-08T10:27:09.773Z,100021.56
2018-12-08T10:29:37.990Z,100030.16
2018-12-08T10:32:05.361Z,100016.66
2018-12-08T10:34:33.609Z,100026.09
2018-12-08T10:37:01.766Z,100030.04
2018-12-08T10:39:30.178Z,100041.88
2018-12-08T10:41:58.326Z,100022.38
2018-12-08T10:44:26.518Z,100035.40
2018-12-08T10:46:54.689Z,100020.10
2018-12-08T10:49:22.992Z,100022.73
2018-12-08T10:51:51.347Z,100035.53
2018-12-08T10:54:19.514Z,100023.05
2018-12-08T10:56:48.261Z,100030.69
2018-12-08T10:59:16.504Z,100018.47
2018-12-08T11:01:49.933Z,100027.91
2018-12-08T11:04:18.203Z,100031.12
2018-12-08T11:06:46.325Z,100022.94
2018-12-08T11:09:14.497Z,100018.25
2018-12-08T11:11:42.636Z,100047.30
2018-12-08T11:14:10.876Z,100040.81
2018-12-08T11:16:39.046Z,100013.59
2018-12-08T11:19:07.385Z,100038.57
2018-12-08T11:21:35.609Z,100025.02
2018-12-08T11:24:03.866Z,100026.05
2018-12-08T11:26:32.135Z,100047.33
2018-12-08T11:29:00.276Z,100032.11
2018-12-08T11:31:28.548Z,100020.48
2018-12-08T11:33:56.680Z,100051.69
2018-12-08T11:36:24.900Z,100027.57
2018-12-08T11:38:53.181Z,100023.97
2018-12-08T11:41:21.353Z,100020.24
2018-12-08T11:43:49.651Z,100031.83
2018-12-08T11:46:18.183Z,100042.11
2018-12-08T11:48:46.369Z,100036.89
2018-12-08T11:51:14.572Z,100033.42
2018-12-08T11:53:42.848Z,100039.75
2018-12-08T11:56:11.354Z,100045.59
2018-12-08T11:58:39.582Z,100051.20
2018-12-08T12:01:07.787Z,100041.11
2018-12-08T12:03:35.945Z,100031.54
2018-12-08T12:06:04.283Z,100047.34
2018-12-08T12:08:32.512Z,100048.31
2018-12-08T12:11:00.645Z,100045.45
2018-12-08T12:13:28.980Z,100026.80
2018-12-08T12:15:57.257Z,100049.09
2018-12-08T12:18:25.515Z,100022.76
2018-12-08T12:20:54.196Z,100032.11
2018-12-08T12:23:22.364Z,100027.80
2018-12-08T12:25:50.710Z,100024.38
2018-12-08T12:28:19.818Z,100030.44
2018-12-08T12:30:48.304Z,100021.09
2018-12-08T12:33:16.521Z,100038.56
2018-12-08T12:35:44.736Z,100041.67
2018-12-08T12:38:13.032Z,100042.03
2018-12-08T12:40:41.192Z,100036.28
2018-12-08T12:43:09.753Z,100033.16
2018-12-08T12:45:38.060Z,100033.64
2018-12-08T12:48:06.341Z,100046.59
2018-12-08T12:50:34.607Z,100029.12
2018-12-08T12:53:02.887Z,100034.91
2018-12-08T12:55:31.205Z,100035.88
2018-12-08T12:57:59.437Z,100027.88
2018-12-08T13:00:27.721Z,100032.70
2018-12-08T13:02:55.889Z,100031.30
2018-12-08T13:05:24.072Z,100034.13
2018-12-08T13:07:52.231Z,100045.66
2018-12-08T13:10:20.448Z,100027.66
2018-12-08T13:12:48.592Z,100026.59
2018-12-08T13:15:16.865Z,100029.97
2018-12-08T13:17:45.143Z,100024.22
2018-12-08T13:20:13.327Z,100034.14
2018-12-08T13:22:41.504Z,100028.05
2018-12-08T13:25:23.652Z,100029.36
2018-12-08T13:27:51.800Z,100020.02
2018-12-08T13:30:20.265Z,100021.69
2018-12-08T13:32:48.469Z,100007.34
2018-12-08T13:35:57.813Z,100012.12
2018-12-08T13:38:26.858Z,100022.52
2018-12-08T13:40:55.148Z,100019.76
2018-12-08T13:43:23.286Z,100010.89
2018-12-08T13:45:51.681Z,100004.67
2018-12-08T13:48:21.744Z,100007.48
2018-12-08T13:50:50.165Z,100004.02
2018-12-08T13:53:18.780Z,99989.77
2018-12-08T13:55:47.037Z,100021.71
2018-12-08T13:58:15.219Z,100010.56
2018-12-08T14:00:43.464Z,100002.41
2018-12-08T14:03:11.648Z,99992.45
2018-12-08T14:05:39.817Z,99979.34
2018-12-08T14:08:08.198Z,99976.09
2018-12-08T14:10:36.520Z,99989.83
2018-12-08T14:13:04.788Z,99992.68
2018-12-08T14:15:33.053Z,99976.75
2018-12-08T14:18:01.329Z,99977.63
2018-12-08T14:20:31.590Z,99990.19
2018-12-08T14:22:59.816Z,99974.12
2018-12-08T14:25:28.288Z,99985.35
2018-12-08T14:27:56.496Z,99979.13
2018-12-08T14:30:25.831Z,99994.92
2018-12-08T14:32:54.063Z,99984.12
2018-12-08T14:35:22.304Z,100001.59
2018-12-08T14:37:50.777Z,99975.60
2018-12-08T14:40:18.934Z,99979.88
2018-12-08T14:42:47.195Z,99975.66
2018-12-08T14:45:15.633Z,99973.37
2018-12-08T14:47:43.925Z,99974.90
2018-12-08T14:50:12.332Z,99977.05
2018-12-08T14:52:40.572Z,99980.73
2018-12-08T14:55:10.131Z,99975.47
2018-12-08T14:57:38.453Z,99988.02
2018-12-08T15:00:10.801Z,99986.57
2018-12-08T15:02:39.068Z,100012.09
2018-12-08T15:05:09.593Z,99979.81
2018-12-08T15:07:37.992Z,99970.94
2018-12-08T15:10:09.212Z,99976.56
2018-12-08T15:12:37.456Z,99973.92
2018-12-08T15:15:06.600Z,99972.13
2018-12-08T15:17:34.796Z,99978.02
2018-12-08T15:20:03.195Z,99991.89
2018-12-08T15:22:31.336Z,99979.20
2018-12-08T15:24:59.478Z,99972.61
2018-12-08T15:27:27.725Z,99961.23
2018-12-08T15:29:55.981Z,99967.12
2018-12-08T15:32:24.213Z,99970.45
2018-12-08T15:34:52.453Z,99958.33
2018-12-08T15:37:20.673Z,99959.16
2018-12-08T15:39:48.913Z,99971.02
2018-12-08T15:42:17.153Z,99970.41
2018-12-08T15:44:46.961Z,99959.23
2018-12-08T15:47:15.345Z,99949.42
2018-12-08T15:49:43.571Z,99944.02
2018-12-08T15:52:11.881Z,99953.11
2018-12-08T15:54:40.045Z,99933.66
2018-12-08T15:57:08.323Z,99964.19
2018-12-08T15:59:36.488Z,99936.37
2018-12-08T16:02:04.658Z,99939.48
2018-12-08T16:04:33.010Z,99925.20
2018-12-08T16:07:01.242Z,99926.87
2018-12-08T16:09:29.710Z,99937.97
2018-12-08T16:11:57.840Z,99927.29
2018-12-08T16:14:26.048Z,99917.58
2018-12-08T16:16:54.316Z,99939.50
2018-12-08T16:19:22.613Z,99907.55
2018-12-08T16:21:50.764Z,99905.75
2018-12-08T16:24:18.950Z,99914.02
2018-12-08T16:26:49.381Z,99892.30
2018-12-08T16:29:17.615Z,99887.85
2018-12-08T16:31:45.813Z,99877.17
2018-12-08T16:34:14.201Z,99892.84
2018-12-08T16:36:42.459Z,99872.59
2018-12-08T16:39:10.601Z,99878.20
2018-12-08T16:41:38.853Z,99878.55
2018-12-08T16:44:07.098Z,99873.48
2018-12-08T16:46:35.232Z,99850.59
2018-12-08T16:49:03.753Z,99857.35
2018-12-08T16:51:32.012Z,99862.63
2018-12-08T16:54:00.523Z,99845.66
2018-12-08T16:56:28.754Z,99843.99
2018-12-08T16:58:57.070Z,99827.63
2018-12-08T17:01:25.232Z,99831.23
2018-12-08T17:03:53.562Z,99824.58
2018-12-08T17:06:21.807Z,99822.91
2018-12-08T17:08:50.066Z,99819.93
2018-12-08T17:11:18.341Z,99832.77
2018-12-08T17:13:46.540Z,99824.72
2018-12-08T17:16:14.692Z,99833.95
2018-12-08T17:21:34.855Z,99814.91
2018-12-08T17:24:03.066Z,99804.16
2018-12-08T17:26:31.353Z,99791.46
2018-12-08T17:28:59.517Z,99787.79
2018-12-08T17:31:27.665Z,99789.45
2018-12-08T17:33:55.806Z,99794.03
2018-12-08T17:36:24.065Z,99767.33
2018-12-08T17:38:52.234Z,99769.48
2018-12-08T17:41:20.385Z,99760.39
2018-12-08T17:43:48.529Z,99753.60
2018-12-08T17:46:16.737Z,99738.97
2018-12-08T17:48:44.973Z,99727.77
2018-12-08T17:51:13.180Z,99730.41
2018-12-08T17:53:41.525Z,99726.45
2018-12-08T17:56:09.733Z,99716.56
2018-12-08T17:58:37.888Z,99698.60
2018-12-08T18:01:06.201Z,99697.77
2018-12-08T18:03:34.445Z,99684.94
2018-12-08T18:06:02.705Z,99674.25
2018-12-08T18:08:31.042Z,99673.13
2018-12-08T18:10:59.597Z,99665.23
2018-12-08T18:13:27.761Z,99653.70
2018-12-08T18:15:55.959Z,99658.84
2018-12-08T18:18:24.103Z,99645.17
2018-12-08T18:20:52.926Z,99634.34
2018-12-08T18:23:21.565Z,99636.97
2018-12-08T18:25:49.807Z,99635.17
2018-12-08T18:28:18.066Z,99626.43
2018-12-08T18:30:46.278Z,99609.30
2018-12-08T18:33:14.493Z,99605.14
2018-12-08T18:35:42.659Z,99600.99
2018-12-08T18:38:10.828Z,99619.94
2018-12-08T18:40:39.078Z,99610.02
2018-12-08T18:43:07.282Z,99584.16
2018-12-08T18:45:35.537Z,99574.91
2018-12-08T18:48:03.840Z,99568.47
2018-12-08T18:50:32.013Z,99563.94
2018-12-08T18:53:00.177Z,99551.74
2018-12-08T18:55:28.349Z,99539.15
2018-12-08T18:57:56.585Z,99542.41
2018-12-08T19:00:24.846Z,99534.52
2018-12-08T19:02:53.005Z,99516.75
2018-12-08T19:05:21.145Z,99507.88
2018-12-08T19:07:49.553Z,99512.30
2018-12-08T19:10:18.109Z,99481.80
2018-12-08T19:12:46.484Z,99478.77
2018-12-08T19:15:14.783Z,99480.09
2018-12-08T19:17:43.048Z,99467.41
2018-12-08T19:20:11.264Z,99469.21
2018-12-08T19:22:39.509Z,99460.14
2018-12-08T19:25:08.320Z,99471.16
2018-12-08T19:27:36.553Z,99453.36
2018-12-08T19:30:06.659Z,99457.80
2018-12-08T19:32:36.266Z,99449.06
2018-12-08T19:35:06.165Z,99440.34
2018-12-08T19:37:34.296Z,99431.45
2018-12-08T19:40:07.385Z,99415.84
2018-12-08T19:42:40.946Z,99405.80
2018-12-08T19:45:11.423Z,99382.92
2018-12-08T19:47:41.092Z,99360.53
2018-12-08T19:50:12.133Z,99357.89
2018-12-08T19:52:40.239Z,99343.41
2018-12-08T19:55:08.987Z,99350.97
2018-12-08T19:57:40.417Z,99331.85
2018-12-08T20:00:13.602Z,99321.31
2018-12-08T20:02:41.934Z,99329.56
2018-12-08T20:05:10.317Z,99327.75
2018-12-08T20:07:38.674Z,99318.53
2018-12-08T20:10:07.366Z,99310.48
2018-12-08T20:12:36.428Z,99306.53
2018-12-08T20:15:05.470Z,99304.72
2018-12-08T20:17:34.022Z,99309.84
2018-12-08T20:20:02.328Z,99308.86
2018-12-08T20:22:31.483Z,99286.47
2018-12-08T20:24:59.846Z,99291.70
2018-12-08T20:27:28.290Z,99266.34
2018-12-08T20:29:56.529Z,99252.83
2018-12-08T20:32:24.673Z,99216.45
2018-12-08T20:34:52.889Z,99216.11
2018-12-08T20:37:21.173Z,99225.81
2018-12-08T20:39:49.312Z,99218.25
2018-12-08T20:42:17.504Z,99212.34
2018-12-08T20:44:45.760Z,99206.44
2018-12-08T20:47:14.061Z,99209.37
2018-12-08T20:49:42.229Z,99203.46
2018-12-08T20:52:10.415Z,99199.70
2018-12-08T20:54:38.568Z,99193.30
2018-12-08T20:57:06.758Z,99186.22
2018-12-08T20:59:35.988Z,99183.43
2018-12-08T21:02:04.851Z,99176.20
2018-12-08T21:04:33.076Z,99152.98
2018-12-08T21:07:01.281Z,99163.70
2018-12-08T21:09:29.448Z,99189.73
2018-12-08T21:11:57.591Z,99192.12
2018-12-08T21:14:25.994Z,99177.95
2018-12-08T21:16:55.993Z,99189.17
2018-12-08T21:19:24.329Z,99205.00
2018-12-08T21:21:52.733Z,99187.23
2018-12-08T21:24:20.861Z,99161.54
2018-12-08T21:26:49.192Z,99149.03
2018-12-08T21:29:17.352Z,99150.98
2018-12-08T21:31:45.573Z,99150.98
2018-12-08T21:34:13.846Z,99137.47
2018-12-08T21:36:41.980Z,99142.74
2018-12-08T21:39:10.225Z,99152.80
2018-12-08T21:41:38.489Z,99159.89
2018-12-08T21:44:07.889Z,99139.47
2018-12-08T21:46:36.312Z,99151.17
2018-12-08T21:49:04.606Z,99158.06
2018-12-08T21:51:32.791Z,99138.00
2018-12-08T21:54:00.932Z,99146.39
2018-12-08T21:56:29.125Z,99162.03
2018-12-08T21:58:57.345Z,99158.23
2018-12-08T22:01:25.622Z,99140.45
2018-12-08T22:03:53.857Z,99137.98
2018-12-08T22:06:22.185Z,99165.65
2018-12-08T22:08:50.558Z,99136.48
2018-12-08T22:11:18.738Z,99164.31
2018-12-08T22:13:46.950Z,99147.52
2018-12-08T22:16:15.148Z,99156.25
2018-12-08T22:18:43.301Z,99143.56
2018-12-08T22:21:11.618Z,99126.27
2018-12-08T22:23:39.835Z,99135.98
2018-12-08T22:26:08.076Z,99149.01
2018-12-08T22:28:36.248Z,99114.75
2018-12-08T22:31:04.528Z,99115.41
2018-12-08T22:33:32.777Z,99133.89
2018-12-08T22:36:01.133Z,99116.92
2018-12-08T22:38:29.460Z,99137.69
2018-12-08T22:40:57.604Z,99111.83
2018-12-08T22:43:25.754Z,99106.56
2018-12-08T22:45:53.952Z,99123.87
2018-12-08T22:48:22.101Z,99115.13
2018-12-08T22:50:50.332Z,99128.32
2018-12-08T22:53:18.577Z,99127.00
2018-12-08T22:55:54.056Z,99116.45
2018-12-08T22:58:22.196Z,99101.13
2018-12-08T23:00:52.409Z,99118.44
2018-12-08T23:03:20.697Z,99108.55
2018-12-08T23:05:49.075Z,99106.89
2018-12-08T23:08:17.269Z,99108.21
2018-12-08T23:10:45.439Z,99102.94
2018-12-08T23:13:13.665Z,99096.68
2018-12-08T23:15:41.925Z,99098.33
2018-12-08T23:18:09.657Z,99096.69
2018-12-08T23:20:37.904Z,99080.84
2018-12-08T23:23:06.400Z,99083.99
2018-12-08T23:25:34.787Z,99068.17
2018-12-08T23:28:03.144Z,99077.89
2018-12-08T23:30:31.345Z,99096.18
2018-12-08T23:32:59.527Z,99107.55
2018-12-08T23:35:27.774Z,99085.59
2018-12-08T23:37:56.076Z,99149.41
2018-12-08T23:40:24.333Z,99127.91
2018-12-08T23:42:52.505Z,99150.14
2018-12-08T23:45:20.673Z,99114.47
2018-12-08T23:47:48.837Z,99170.44
2018-12-08T23:50:17.081Z,99123.64
2018-12-08T23:52:45.265Z,99138.61
2018-12-08T23:55:13.454Z,99156.08
2018-12-08T23:57:41.654Z,99140.64
